createdAt,value
2023-05-01T00:01:26.870Z,14.12
2023-05-01T00:03:54.695Z,14.11
2023-05-01T00:06:21.195Z,14.13
2023-05-01T00:08:47.808Z,14.16
2023-05-01T00:11:14.571Z,14.17
2023-05-01T00:13:41.205Z,14.19
2023-05-01T00:16:12.540Z,14.23
2023-05-01T00:18:39.355Z,14.26
2023-05-01T00:21:05.910Z,14.14
2023-05-01T00:23:32.288Z,14.10
2023-05-01T00:25:58.730Z,14.12
2023-05-01T00:28:25.229Z,14.08
2023-05-01T00:30:51.872Z,14.08
2023-05-01T00:33:18.182Z,14.12
2023-05-01T00:35:45.334Z,14.19
2023-05-01T00:38:12.044Z,14.16
2023-05-01T00:40:45.194Z,14.15
2023-05-01T00:43:12.740Z,14.16
2023-05-01T00:45:40.473Z,14.15
2023-05-01T00:48:07.166Z,14.18
2023-05-01T00:50:33.652Z,14.20
2023-05-01T00:53:00.318Z,14.23
2023-05-01T00:55:26.952Z,14.20
2023-05-01T00:57:55.149Z,14.19
2023-05-01T01:00:24.430Z,14.14
2023-05-01T01:02:51.268Z,14.20
2023-05-01T01:05:18.827Z,14.14
2023-05-01T01:07:55.826Z,14.12
2023-05-01T01:10:22.125Z,14.11
2023-05-01T01:13:21.511Z,14.02
2023-05-01T01:16:04.131Z,13.99
2023-05-01T01:18:40.217Z,13.93
2023-05-01T01:21:38.113Z,13.97
2023-05-01T01:24:46.336Z,14.01
2023-05-01T01:27:39.764Z,13.99
2023-05-01T01:30:31.861Z,13.94
2023-05-01T01:33:36.158Z,14.01
2023-05-01T01:36:09.121Z,14.06
2023-05-01T01:38:42.534Z,14.01
2023-05-01T01:41:13.535Z,13.92
2023-05-01T01:43:45.755Z,13.88
2023-05-01T01:46:12.854Z,13.84
2023-05-01T01:48:43.375Z,13.87
2023-05-01T01:51:14.631Z,13.84
2023-05-01T01:53:43.394Z,13.84
2023-05-01T01:56:10.731Z,13.68
2023-05-01T01:58:39.861Z,13.54
2023-05-01T02:01:07.560Z,13.48
2023-05-01T02:03:34.955Z,13.52
2023-05-01T02:06:02.532Z,13.46
2023-05-01T02:08:31.674Z,13.50
2023-05-01T02:11:02.050Z,13.59
2023-05-01T02:13:29.981Z,13.60
2023-05-01T02:15:58.811Z,13.58
2023-05-01T02:18:29.335Z,13.55
2023-05-01T02:20:57.994Z,13.52
2023-05-01T02:23:26.145Z,13.50
2023-05-01T02:25:53.666Z,13.46
2023-05-01T02:28:26.784Z,13.50
2023-05-01T02:30:53.342Z,13.47
2023-05-01T02:33:19.760Z,13.42
2023-05-01T02:35:47.436Z,13.34
2023-05-01T02:38:16.184Z,13.35
2023-05-01T02:40:52.057Z,13.33
2023-05-01T02:43:21.261Z,13.31
2023-05-01T02:45:49.274Z,13.30
2023-05-01T02:48:20.344Z,13.30
2023-05-01T02:50:48.613Z,13.36
2023-05-01T02:53:16.265Z,13.34
2023-05-01T02:55:43.302Z,13.31
2023-05-01T02:58:15.334Z,13.36
2023-05-01T03:00:42.190Z,13.31
2023-05-01T03:03:08.742Z,13.26
2023-05-01T03:05:35.181Z,13.19
2023-05-01T03:08:01.623Z,13.16
2023-05-01T03:10:28.096Z,13.13
2023-05-01T03:12:54.412Z,13.12
2023-05-01T03:15:20.795Z,13.09
2023-05-01T03:17:47.403Z,13.06
2023-05-01T03:20:13.822Z,12.96
2023-05-01T03:22:40.179Z,12.95
2023-05-01T03:25:06.999Z,12.97
2023-05-01T03:27:33.389Z,12.93
2023-05-01T03:29:59.697Z,12.92
2023-05-01T03:32:26.235Z,12.89
2023-05-01T03:34:52.680Z,12.93
2023-05-01T03:37:19.084Z,12.88
2023-05-01T03:39:47.212Z,12.84
2023-05-01T03:42:13.564Z,12.74
2023-05-01T03:44:39.940Z,12.75
2023-05-01T03:47:06.497Z,12.76
2023-05-01T03:49:32.858Z,12.72
2023-05-01T03:51:59.183Z,12.64
2023-05-01T03:54:25.929Z,12.66
2023-05-01T03:56:52.579Z,12.65
2023-05-01T03:59:18.964Z,12.62
2023-05-01T04:01:45.882Z,12.60
2023-05-01T04:04:12.347Z,12.57
2023-05-01T04:06:38.905Z,12.52
2023-05-01T04:09:05.429Z,12.53
2023-05-01T04:11:31.804Z,12.53
2023-05-01T04:13:58.153Z,12.53
2023-05-01T04:16:24.915Z,12.51
2023-05-01T04:18:52.756Z,12.47
2023-05-01T04:21:19.313Z,12.42
2023-05-01T04:23:45.814Z,12.42
2023-05-01T04:26:12.195Z,12.43
2023-05-01T04:28:38.697Z,12.41
2023-05-01T04:31:05.245Z,12.36
2023-05-01T04:33:31.678Z,12.34
2023-05-01T04:35:58.504Z,12.29
2023-05-01T04:38:24.907Z,12.26
2023-05-01T04:40:52.334Z,12.24
2023-05-01T04:43:18.650Z,12.21
2023-05-01T04:45:45.157Z,12.22
2023-05-01T04:48:11.641Z,12.23
2023-05-01T04:50:38.159Z,12.16
2023-05-01T04:53:04.535Z,12.15
2023-05-01T04:55:31.366Z,12.17
2023-05-01T04:57:57.789Z,12.14
2023-05-01T05:00:24.171Z,12.14
2023-05-01T05:02:50.670Z,12.13
2023-05-01T05:05:17.125Z,12.18
2023-05-01T05:07:43.479Z,12.19
2023-05-01T05:10:10.335Z,12.17
2023-05-01T05:12:36.788Z,12.20
2023-05-01T05:15:03.270Z,12.23
2023-05-01T05:17:29.742Z,12.21
2023-05-01T05:19:56.280Z,12.22
2023-05-01T05:22:23.614Z,12.21
2023-05-01T05:24:55.708Z,12.22
2023-05-01T05:27:22.006Z,12.29
2023-05-01T05:29:48.344Z,12.34
2023-05-01T05:32:14.840Z,12.41
2023-05-01T05:34:41.179Z,12.46
2023-05-01T05:37:08.364Z,12.51
2023-05-01T05:39:35.115Z,12.57
2023-05-01T05:42:01.444Z,12.61
2023-05-01T05:44:27.819Z,12.69
2023-05-01T05:46:54.234Z,12.70
2023-05-01T05:49:20.621Z,12.85
2023-05-01T05:51:46.997Z,13.00
2023-05-01T05:54:13.445Z,13.09
2023-05-01T05:56:39.828Z,13.10
2023-05-01T05:59:06.464Z,13.14
2023-05-01T06:01:33.020Z,13.17
2023-05-01T06:03:59.324Z,13.23
2023-05-01T06:06:26.338Z,13.32
2023-05-01T06:08:52.737Z,13.37
2023-05-01T06:11:21.465Z,13.41
2023-05-01T06:13:47.815Z,13.47
2023-05-01T06:16:15.209Z,13.57
2023-05-01T06:18:42.402Z,13.66
2023-05-01T06:21:10.312Z,13.72
2023-05-01T06:23:37.123Z,13.72
2023-05-01T06:29:44.299Z,13.84
2023-05-01T06:32:10.795Z,13.90
2023-05-01T06:34:37.122Z,13.91
2023-05-01T06:37:06.343Z,13.97
2023-05-01T06:39:32.814Z,14.05
2023-05-01T06:41:59.299Z,14.07
2023-05-01T06:44:25.752Z,14.14
2023-05-01T06:46:52.261Z,14.18
2023-05-01T06:49:18.788Z,14.23
2023-05-01T06:51:45.316Z,14.32
2023-05-01T06:54:11.616Z,14.28
2023-05-01T06:56:38.066Z,14.30
2023-05-01T06:59:04.525Z,14.28
2023-05-01T07:01:32.701Z,14.36
2023-05-01T07:04:00.354Z,14.47
2023-05-01T07:06:27.550Z,14.45
2023-05-01T07:08:54.030Z,14.48
2023-05-01T07:11:20.422Z,14.50
2023-05-01T07:13:46.766Z,14.57
2023-05-01T07:16:13.314Z,14.55
2023-05-01T07:18:39.760Z,14.60
2023-05-01T07:21:06.274Z,14.64
2023-05-01T07:23:32.733Z,14.64
2023-05-01T07:25:59.068Z,14.72
2023-05-01T07:28:25.518Z,14.77
2023-05-01T07:30:52.006Z,14.82
2023-05-01T07:33:18.691Z,14.84
2023-05-01T07:35:45.250Z,14.99
2023-05-01T07:38:12.053Z,15.09
2023-05-01T07:40:38.602Z,15.14
2023-05-01T07:43:05.218Z,15.14
2023-05-01T07:45:32.031Z,15.17
2023-05-01T07:47:58.482Z,15.20
2023-05-01T07:50:26.033Z,15.24
2023-05-01T07:52:52.747Z,15.13
2023-05-01T07:55:19.167Z,15.14
2023-05-01T07:57:45.639Z,15.16
2023-05-01T08:00:12.617Z,15.20
2023-05-01T08:02:39.195Z,15.17
2023-05-01T08:05:06.033Z,15.32
2023-05-01T08:07:32.532Z,15.41
2023-05-01T08:10:00.602Z,15.39
2023-05-01T08:12:28.842Z,15.49
2023-05-01T08:14:55.251Z,15.54
2023-05-01T08:17:21.725Z,15.60
2023-05-01T08:19:48.235Z,15.58
2023-05-01T08:22:14.601Z,15.61
2023-05-01T08:24:42.682Z,15.69
2023-05-01T08:27:09.555Z,15.76
2023-05-01T08:29:35.949Z,15.90
2023-05-01T08:32:02.437Z,15.95
2023-05-01T08:34:29.096Z,15.82
2023-05-01T08:36:55.506Z,15.79
2023-05-01T08:39:21.938Z,15.86
2023-05-01T08:41:48.754Z,15.94
2023-05-01T08:44:16.696Z,16.14
2023-05-01T08:46:55.747Z,16.17
2023-05-01T08:49:23.899Z,16.24
2023-05-01T08:51:52.871Z,16.34
2023-05-01T08:54:20.713Z,16.37
2023-05-01T08:56:47.782Z,16.39
2023-05-01T08:59:15.016Z,16.26
2023-05-01T09:01:42.823Z,16.37
2023-05-01T09:04:10.732Z,16.41
2023-05-01T09:06:37.752Z,16.52
2023-05-01T09:09:04.426Z,16.59
2023-05-01T09:11:30.824Z,16.79
2023-05-01T09:13:57.349Z,16.78
2023-05-01T09:16:23.910Z,16.76
2023-05-01T09:18:50.562Z,16.81
2023-05-01T09:21:17.323Z,16.86
2023-05-01T09:23:43.733Z,16.89
2023-05-01T09:26:10.388Z,16.99
2023-05-01T09:28:58.138Z,17.11
2023-05-01T09:31:29.451Z,17.30
2023-05-01T09:34:00.946Z,17.43
2023-05-01T09:36:30.992Z,17.43
2023-05-01T09:38:58.057Z,17.54
2023-05-01T09:41:24.539Z,17.58
2023-05-01T09:43:52.927Z,17.55
2023-05-01T09:46:20.058Z,17.76
2023-05-01T09:48:58.890Z,18.00
2023-05-01T09:51:33.316Z,18.11
2023-05-01T09:54:02.135Z,18.19
2023-05-01T09:56:33.835Z,18.19
2023-05-01T09:59:18.893Z,18.37
2023-05-01T10:01:48.259Z,18.19
2023-05-01T10:04:14.659Z,18.15
2023-05-01T10:06:41.397Z,18.07
2023-05-01T10:09:16.588Z,18.13
2023-05-01T10:11:57.550Z,18.06
2023-05-01T10:14:25.560Z,18.02
2023-05-01T10:16:53.206Z,18.16
2023-05-01T10:19:21.270Z,18.24
2023-05-01T10:21:47.697Z,18.34
2023-05-01T10:24:16.170Z,18.46
2023-05-01T10:26:46.327Z,18.47
2023-05-01T10:29:12.999Z,18.45
2023-05-01T10:31:41.532Z,18.56
2023-05-01T10:34:09.196Z,18.71
2023-05-01T10:36:44.809Z,18.89
2023-05-01T10:39:31.267Z,18.94
2023-05-01T10:41:57.638Z,19.03
2023-05-01T10:44:26.242Z,19.18
2023-05-01T10:46:53.238Z,19.35
2023-05-01T10:49:19.802Z,19.39
2023-05-01T10:51:58.349Z,19.57
2023-05-01T10:54:29.697Z,19.66
2023-05-01T10:56:58.574Z,19.83
2023-05-01T10:59:25.610Z,19.87
2023-05-01T11:01:53.104Z,19.89
2023-05-01T11:04:19.527Z,19.91
2023-05-01T11:07:17.662Z,19.68
2023-05-01T11:09:57.380Z,19.72
2023-05-01T11:12:46.064Z,19.81
2023-05-01T11:15:13.505Z,19.86
2023-05-01T11:17:39.981Z,19.80
2023-05-01T11:20:07.724Z,19.83
2023-05-01T11:22:35.126Z,19.85
2023-05-01T11:25:04.660Z,19.84
2023-05-01T11:27:31.514Z,19.85
2023-05-01T11:30:00.979Z,19.81
2023-05-01T11:32:29.961Z,19.99
2023-05-01T11:34:57.019Z,20.08
2023-05-01T11:37:44.212Z,20.26
2023-05-01T11:40:26.334Z,20.32
2023-05-01T11:43:06.892Z,20.44
2023-05-01T11:45:35.052Z,20.70
2023-05-01T11:48:04.416Z,20.84
2023-05-01T11:50:36.097Z,20.94
2023-05-01T11:53:15.411Z,20.83
2023-05-01T11:55:42.131Z,20.84
2023-05-01T11:58:08.797Z,20.92
2023-05-01T12:00:38.037Z,20.72
2023-05-01T12:03:07.091Z,20.72
2023-05-01T12:05:36.848Z,20.71
2023-05-01T12:08:23.787Z,20.73
2023-05-01T12:10:56.135Z,20.62
2023-05-01T12:13:23.583Z,20.64
2023-05-01T12:15:52.819Z,20.48
2023-05-01T12:18:21.407Z,20.49
2023-05-01T12:20:51.751Z,20.57
2023-05-01T12:23:21.759Z,20.59
2023-05-01T12:25:48.244Z,20.60
2023-05-01T12:28:20.355Z,20.64
2023-05-01T12:30:49.023Z,20.60
2023-05-01T12:33:20.152Z,20.59
2023-05-01T12:35:50.503Z,20.63
2023-05-01T12:38:21.480Z,20.57
2023-05-01T12:40:54.601Z,20.62
2023-05-01T12:43:32.626Z,20.60
2023-05-01T12:45:59.587Z,20.58
2023-05-01T12:48:26.699Z,20.57
2023-05-01T12:50:56.875Z,20.58
2023-05-01T12:53:25.167Z,20.66
2023-05-01T12:55:54.070Z,20.58
2023-05-01T12:58:20.849Z,20.59
2023-05-01T13:00:52.166Z,20.58
2023-05-01T13:03:26.872Z,20.65
2023-05-01T13:06:03.870Z,20.68
2023-05-01T13:08:32.582Z,20.84
2023-05-01T13:11:01.057Z,20.83
2023-05-01T13:13:34.548Z,20.92
2023-05-01T13:16:12.730Z,21.14
2023-05-01T13:18:58.008Z,21.16
2023-05-01T13:21:24.889Z,21.19
2023-05-01T13:23:59.883Z,21.27
2023-05-01T13:26:35.564Z,21.38
2023-05-01T13:29:03.871Z,21.49
2023-05-01T13:31:30.477Z,21.49
2023-05-01T13:33:58.837Z,21.58
2023-05-01T13:36:27.639Z,21.71
2023-05-01T13:38:55.963Z,21.80
2023-05-01T13:41:25.651Z,21.92
2023-05-01T13:43:53.976Z,22.04
2023-05-01T13:46:23.072Z,21.95
2023-05-01T13:48:50.045Z,21.74
2023-05-01T13:51:24.876Z,21.67
2023-05-01T13:53:53.714Z,21.46
2023-05-01T13:56:21.428Z,21.35
2023-05-01T13:58:47.821Z,21.17
2023-05-01T14:01:20.133Z,21.07
2023-05-01T14:03:47.575Z,21.03
2023-05-01T14:06:19.303Z,20.98
2023-05-01T14:08:47.785Z,20.93
2023-05-01T14:11:14.536Z,20.83
2023-05-01T14:13:42.818Z,20.80
2023-05-01T14:16:11.675Z,20.79
2023-05-01T14:18:47.404Z,20.72
2023-05-01T14:21:18.500Z,20.62
2023-05-01T14:23:45.388Z,20.24
2023-05-01T14:26:17.895Z,20.10
2023-05-01T14:28:46.267Z,19.94
2023-05-01T14:31:23.504Z,19.74
2023-05-01T14:33:55.019Z,19.59
2023-05-01T14:36:21.444Z,19.41
2023-05-01T14:38:49.293Z,19.36
2023-05-01T14:41:17.817Z,19.07
2023-05-01T14:43:44.328Z,18.84
2023-05-01T14:46:33.261Z,18.72
2023-05-01T14:49:01.342Z,18.65
2023-05-01T14:51:28.594Z,18.56
2023-05-01T14:53:55.528Z,18.40
2023-05-01T14:56:22.874Z,18.23
2023-05-01T14:58:49.926Z,17.97
2023-05-01T15:01:16.914Z,17.58
2023-05-01T15:03:43.807Z,16.99
2023-05-01T15:06:10.571Z,16.72
2023-05-01T15:08:38.255Z,16.53
2023-05-01T15:11:04.942Z,16.40
2023-05-01T15:13:34.315Z,16.33
2023-05-01T15:16:01.005Z,16.29
2023-05-01T15:18:27.464Z,16.15
2023-05-01T15:20:53.859Z,16.01
2023-05-01T15:23:20.685Z,15.86
2023-05-01T15:25:47.998Z,15.71
2023-05-01T15:28:14.616Z,15.67
2023-05-01T15:30:44.762Z,15.61
2023-05-01T15:33:11.399Z,15.50
2023-05-01T15:35:38.027Z,15.50
2023-05-01T15:38:04.671Z,15.55
2023-05-01T15:40:31.872Z,15.47
2023-05-01T15:42:58.507Z,15.36
2023-05-01T15:45:25.008Z,15.31
2023-05-01T15:47:51.437Z,15.35
2023-05-01T15:50:17.849Z,15.41
2023-05-01T15:52:44.384Z,15.43
2023-05-01T15:55:11.782Z,15.50
2023-05-01T15:57:38.188Z,15.53
2023-05-01T16:00:05.119Z,15.57
2023-05-01T16:02:32.646Z,15.57
2023-05-01T16:05:00.126Z,15.56
2023-05-01T16:07:29.209Z,15.54
2023-05-01T16:09:56.532Z,15.48
2023-05-01T16:12:23.090Z,15.44
2023-05-01T16:14:49.599Z,15.48
2023-05-01T16:17:18.344Z,15.48
2023-05-01T16:19:44.847Z,15.44
2023-05-01T16:22:11.642Z,15.54
2023-05-01T16:24:38.461Z,15.57
2023-05-01T16:27:04.825Z,15.55
2023-05-01T16:29:35.338Z,15.76
2023-05-01T16:32:04.545Z,15.82
2023-05-01T16:34:31.618Z,15.97
2023-05-01T16:36:58.215Z,16.04
2023-05-01T16:39:24.668Z,16.10
2023-05-01T16:41:53.414Z,16.10
2023-05-01T16:44:21.145Z,16.16
2023-05-01T16:46:55.827Z,16.19
2023-05-01T16:49:23.728Z,16.24
2023-05-01T16:51:50.556Z,16.29
2023-05-01T16:54:18.303Z,16.25
2023-05-01T16:56:44.657Z,16.25
2023-05-01T16:59:11.013Z,16.24
2023-05-01T17:01:37.486Z,16.22
2023-05-01T17:04:04.140Z,16.14
2023-05-01T17:06:31.152Z,16.10
2023-05-01T17:08:57.722Z,16.08
2023-05-01T17:11:24.716Z,16.08
2023-05-01T17:13:52.401Z,16.04
2023-05-01T17:16:19.355Z,15.96
2023-05-01T17:18:46.581Z,15.87
2023-05-01T17:21:12.969Z,15.86
2023-05-01T17:23:39.315Z,15.86
2023-05-01T17:26:05.884Z,15.88
2023-05-01T17:28:32.257Z,15.85
2023-05-01T17:30:58.722Z,15.81
2023-05-01T17:33:25.194Z,15.75
2023-05-01T17:35:51.765Z,15.83
2023-05-01T17:38:18.095Z,15.89
2023-05-01T17:40:47.153Z,15.85
2023-05-01T17:43:13.569Z,15.80
2023-05-01T17:45:40.132Z,15.85
2023-05-01T17:48:06.697Z,15.76
2023-05-01T17:50:33.088Z,15.72
2023-05-01T17:52:59.420Z,15.73
2023-05-01T17:55:27.513Z,15.63
2023-05-01T17:57:53.871Z,15.50
2023-05-01T18:00:21.125Z,15.48
2023-05-01T18:02:48.121Z,15.61
2023-05-01T18:05:14.771Z,15.59
2023-05-01T18:07:41.237Z,15.66
2023-05-01T18:10:08.426Z,15.60
2023-05-01T18:12:35.136Z,15.66
2023-05-01T18:15:01.525Z,15.65
2023-05-01T18:17:28.096Z,15.50
2023-05-01T18:19:54.880Z,15.47
2023-05-01T18:22:21.305Z,15.44
2023-05-01T18:24:48.178Z,15.44
2023-05-01T18:27:14.570Z,15.44
2023-05-01T18:29:40.913Z,15.38
2023-05-01T18:32:09.364Z,15.38
2023-05-01T18:34:36.438Z,15.26
2023-05-01T18:37:02.814Z,15.16
2023-05-01T18:39:29.256Z,15.17
2023-05-01T18:41:55.618Z,15.12
2023-05-01T18:44:22.269Z,15.07
2023-05-01T18:46:48.756Z,15.05
2023-05-01T18:49:15.444Z,14.98
2023-05-01T18:51:41.807Z,14.85
2023-05-01T18:54:09.842Z,14.80
2023-05-01T18:56:36.379Z,14.84
2023-05-01T18:59:02.707Z,14.80
2023-05-01T19:01:29.221Z,14.76
2023-05-01T19:03:58.923Z,14.77
2023-05-01T19:06:26.613Z,14.78
2023-05-01T19:08:53.570Z,14.70
2023-05-01T19:11:20.079Z,14.63
2023-05-01T19:13:46.671Z,14.59
2023-05-01T19:16:13.656Z,14.64
2023-05-01T19:18:40.787Z,14.57
2023-05-01T19:21:07.322Z,14.60
2023-05-01T19:23:35.617Z,14.55
2023-05-01T19:26:04.196Z,14.52
2023-05-01T19:28:31.146Z,14.52
2023-05-01T19:30:57.650Z,14.52
2023-05-01T19:33:24.022Z,14.40
2023-05-01T19:35:50.529Z,14.37
2023-05-01T19:38:17.054Z,14.36
2023-05-01T19:40:44.818Z,14.34
2023-05-01T19:43:13.252Z,14.31
2023-05-01T19:45:40.023Z,14.29
2023-05-01T19:48:06.837Z,14.27
2023-05-01T19:50:33.573Z,14.28
2023-05-01T19:53:00.027Z,14.25
2023-05-01T19:55:26.374Z,14.16
2023-05-01T19:57:52.753Z,14.12
2023-05-01T20:00:19.389Z,14.15
2023-05-01T20:02:47.507Z,14.08
2023-05-01T20:05:14.290Z,14.04
2023-05-01T20:07:41.336Z,14.04
2023-05-01T20:10:09.583Z,14.03
2023-05-01T20:12:35.878Z,14.03
2023-05-01T20:15:02.304Z,13.96
2023-05-01T20:17:28.890Z,13.95
2023-05-01T20:19:55.290Z,13.86
2023-05-01T20:22:21.675Z,13.74
2023-05-01T20:24:48.044Z,13.62
2023-05-01T20:27:15.601Z,13.60
2023-05-01T20:29:42.341Z,13.58
2023-05-01T20:32:08.890Z,13.62
2023-05-01T20:34:35.226Z,13.51
2023-05-01T20:37:01.706Z,13.46
2023-05-01T20:39:28.759Z,13.48
2023-05-01T20:41:56.661Z,13.46
2023-05-01T20:44:25.959Z,13.29
2023-05-01T20:46:52.597Z,13.32
2023-05-01T20:49:20.405Z,13.18
2023-05-01T20:51:46.850Z,13.13
2023-05-01T20:54:13.185Z,13.09
2023-05-01T20:56:39.546Z,13.09
2023-05-01T20:59:06.846Z,13.12
2023-05-01T21:01:33.231Z,13.13
2023-05-01T21:03:59.972Z,13.00
2023-05-01T21:06:27.338Z,12.95
2023-05-01T21:08:53.950Z,12.95
2023-05-01T21:11:20.910Z,12.92
2023-05-01T21:13:47.401Z,12.75
2023-05-01T21:16:18.261Z,12.72
2023-05-01T21:18:44.688Z,12.70
2023-05-01T21:21:16.308Z,12.72
2023-05-01T21:23:48.919Z,12.69
2023-05-01T21:26:16.266Z,12.65
2023-05-01T21:28:43.569Z,12.61
2023-05-01T21:31:13.641Z,12.56
2023-05-01T21:33:43.284Z,12.49
2023-05-01T21:36:10.479Z,12.52
2023-05-01T21:38:37.106Z,12.47
2023-05-01T21:41:03.585Z,12.41
2023-05-01T21:43:32.594Z,12.42
2023-05-01T21:45:58.984Z,12.37
2023-05-01T21:48:25.664Z,12.29
2023-05-01T21:50:52.141Z,12.30
2023-05-01T21:53:18.492Z,12.22
2023-05-01T21:55:46.613Z,12.19
2023-05-01T21:58:13.738Z,12.09
2023-05-01T22:00:41.631Z,12.04
2023-05-01T22:03:08.859Z,11.97
2023-05-01T22:05:35.287Z,12.06
2023-05-01T22:08:01.691Z,12.01
2023-05-01T22:10:28.664Z,11.91
2023-05-01T22:12:55.117Z,11.92
2023-05-01T22:15:21.536Z,11.89
2023-05-01T22:17:48.122Z,11.84
2023-05-01T22:20:14.628Z,11.82
2023-05-01T22:22:42.979Z,11.78
2023-05-01T22:25:11.546Z,11.75
2023-05-01T22:27:38.291Z,11.77
2023-05-01T22:30:05.428Z,11.85
2023-05-01T22:32:32.270Z,11.76
2023-05-01T22:34:58.628Z,11.72
2023-05-01T22:37:25.690Z,11.69
2023-05-01T22:39:53.155Z,11.58
2023-05-01T22:42:19.877Z,11.53
2023-05-01T22:44:46.284Z,11.50
2023-05-01T22:47:12.710Z,11.37
2023-05-01T22:49:39.165Z,11.41
2023-05-01T22:52:05.609Z,11.47
2023-05-01T22:54:32.007Z,11.38
2023-05-01T22:56:58.453Z,11.40
2023-05-01T22:59:25.841Z,11.35
2023-05-01T23:01:52.348Z,11.36
2023-05-01T23:04:18.793Z,11.35
2023-05-01T23:06:45.365Z,11.35
2023-05-01T23:09:12.076Z,11.34
2023-05-01T23:11:40.170Z,11.34
2023-05-01T23:14:06.597Z,11.28
2023-05-01T23:16:41.456Z,11.26
2023-05-01T23:19:24.586Z,11.25
2023-05-01T23:22:02.222Z,11.29
2023-05-01T23:24:40.381Z,11.31
2023-05-01T23:27:06.888Z,11.23
2023-05-01T23:29:33.262Z,11.24
2023-05-01T23:31:59.818Z,11.21
2023-05-01T23:34:28.412Z,11.15
2023-05-01T23:36:54.782Z,11.14
2023-05-01T23:39:21.209Z,11.18
2023-05-01T23:41:47.595Z,11.19
2023-05-01T23:44:13.962Z,11.13
2023-05-01T23:46:40.590Z,11.18
2023-05-01T23:49:06.996Z,11.14
2023-05-01T23:51:33.422Z,11.18
2023-05-01T23:54:00.372Z,11.18
2023-05-01T23:56:26.812Z,11.17
2023-05-01T23:58:53.138Z,11.14
